createdAt,value
2023-05-06T00:00:37.571Z,12.85
2023-05-06T00:03:04.345Z,12.79
2023-05-06T00:05:31.098Z,12.74
2023-05-06T00:07:57.662Z,12.75
2023-05-06T00:10:24.405Z,12.74
2023-05-06T00:12:50.887Z,12.71
2023-05-06T00:15:17.488Z,12.77
2023-05-06T00:17:44.125Z,12.77
2023-05-06T00:20:11.490Z,12.83
2023-05-06T00:22:38.213Z,12.88
2023-05-06T00:25:05.571Z,12.91
2023-05-06T00:27:32.240Z,13.02
2023-05-06T00:29:58.789Z,12.81
2023-05-06T00:32:25.595Z,12.75
2023-05-06T00:34:52.143Z,12.82
2023-05-06T00:37:18.785Z,12.73
2023-05-06T00:39:45.358Z,12.73
2023-05-06T00:42:11.956Z,12.73
2023-05-06T00:44:38.562Z,12.67
2023-05-06T00:47:05.582Z,12.74
2023-05-06T00:49:32.180Z,12.78
2023-05-06T00:51:59.872Z,12.86
2023-05-06T00:54:26.927Z,12.85
2023-05-06T00:56:54.164Z,12.82
2023-05-06T00:59:21.542Z,12.82
2023-05-06T01:01:48.196Z,12.86
2023-05-06T01:04:15.608Z,12.92
2023-05-06T01:07:06.093Z,12.94
2023-05-06T01:09:41.862Z,12.98
2023-05-06T01:12:29.060Z,13.02
2023-05-06T01:15:08.117Z,12.96
2023-05-06T01:17:37.777Z,12.87
2023-05-06T01:20:07.420Z,12.76
2023-05-06T01:22:36.408Z,12.63
2023-05-06T01:25:03.061Z,12.63
2023-05-06T01:27:29.609Z,12.60
2023-05-06T01:29:57.905Z,12.61
2023-05-06T01:32:51.756Z,12.63
2023-05-06T01:35:26.421Z,12.67
2023-05-06T01:37:59.650Z,12.74
2023-05-06T01:40:28.071Z,12.75
2023-05-06T01:42:55.636Z,12.78
2023-05-06T01:45:26.748Z,12.76
2023-05-06T01:47:53.944Z,12.82
2023-05-06T01:50:21.371Z,12.87
2023-05-06T01:52:59.950Z,12.82
2023-05-06T01:55:27.088Z,12.76
2023-05-06T01:57:57.031Z,12.77
2023-05-06T02:00:25.060Z,12.81
2023-05-06T02:02:51.898Z,12.84
2023-05-06T02:05:18.817Z,12.82
2023-05-06T02:07:49.752Z,12.85
2023-05-06T02:10:17.018Z,12.89
2023-05-06T02:12:49.169Z,12.91
2023-05-06T02:15:16.139Z,12.80
2023-05-06T02:17:43.710Z,12.83
2023-05-06T02:20:10.996Z,12.82
2023-05-06T02:22:37.519Z,12.78
2023-05-06T02:25:04.339Z,12.67
2023-05-06T02:27:30.900Z,12.62
2023-05-06T02:29:57.467Z,12.69
2023-05-06T02:32:24.052Z,12.75
2023-05-06T02:34:51.634Z,12.76
2023-05-06T02:37:20.904Z,12.75
2023-05-06T02:39:47.426Z,12.77
2023-05-06T02:42:14.727Z,12.78
2023-05-06T02:44:41.710Z,12.73
2023-05-06T02:47:08.398Z,12.73
2023-05-06T02:49:34.988Z,12.68
2023-05-06T02:52:01.525Z,12.56
2023-05-06T02:54:28.090Z,12.52
2023-05-06T02:56:54.675Z,12.57
2023-05-06T02:59:22.072Z,12.56
2023-05-06T03:01:48.681Z,12.53
2023-05-06T03:04:15.272Z,12.60
2023-05-06T03:06:41.873Z,12.49
2023-05-06T03:09:09.753Z,12.51
2023-05-06T03:11:36.383Z,12.50
2023-05-06T03:14:04.962Z,12.47
2023-05-06T03:16:31.579Z,12.38
2023-05-06T03:19:00.194Z,12.28
2023-05-06T03:21:26.931Z,12.20
2023-05-06T03:23:53.544Z,12.17
2023-05-06T03:26:22.945Z,12.09
2023-05-06T03:28:50.136Z,12.21
2023-05-06T03:31:19.507Z,12.25
2023-05-06T03:33:46.060Z,12.26
2023-05-06T03:36:16.267Z,12.14
2023-05-06T03:38:45.012Z,11.83
2023-05-06T03:41:12.532Z,11.89
2023-05-06T03:43:39.671Z,11.82
2023-05-06T03:46:06.354Z,11.90
2023-05-06T03:48:35.339Z,11.96
2023-05-06T03:51:04.701Z,11.81
2023-05-06T03:53:31.591Z,11.64
2023-05-06T03:55:58.264Z,11.63
2023-05-06T03:58:25.045Z,11.62
2023-05-06T04:00:51.956Z,11.69
2023-05-06T04:03:18.920Z,11.60
2023-05-06T04:05:50.663Z,11.64
2023-05-06T04:08:20.637Z,11.54
2023-05-06T04:10:47.385Z,11.56
2023-05-06T04:13:21.131Z,11.42
2023-05-06T04:15:49.748Z,11.35
2023-05-06T04:18:20.645Z,11.24
2023-05-06T04:20:56.681Z,11.07
2023-05-06T04:23:24.245Z,11.13
2023-05-06T04:25:51.106Z,11.11
2023-05-06T04:28:20.041Z,11.12
2023-05-06T04:30:49.823Z,11.23
2023-05-06T04:33:17.841Z,11.16
2023-05-06T04:35:54.016Z,11.05
2023-05-06T04:38:22.616Z,10.98
2023-05-06T04:40:50.221Z,11.06
2023-05-06T04:43:17.514Z,11.07
2023-05-06T04:45:49.534Z,10.89
2023-05-06T04:48:22.348Z,11.04
2023-05-06T04:50:50.909Z,11.18
2023-05-06T04:53:17.895Z,11.33
2023-05-06T04:55:44.504Z,11.28
2023-05-06T04:58:11.057Z,11.30
2023-05-06T05:00:38.579Z,11.07
2023-05-06T05:03:05.569Z,10.98
2023-05-06T05:05:34.183Z,11.01
2023-05-06T05:08:01.512Z,11.10
2023-05-06T05:10:30.988Z,11.13
2023-05-06T05:12:58.379Z,11.15
2023-05-06T05:15:25.203Z,11.02
2023-05-06T05:17:52.104Z,11.06
2023-05-06T05:20:21.867Z,11.10
2023-05-06T05:22:48.566Z,11.26
2023-05-06T05:25:15.298Z,11.29
2023-05-06T05:27:43.052Z,11.23
2023-05-06T05:30:10.158Z,11.25
2023-05-06T05:32:38.696Z,11.32
2023-05-06T05:35:05.867Z,11.11
2023-05-06T05:37:33.151Z,11.36
2023-05-06T05:39:59.991Z,11.38
2023-05-06T05:42:27.746Z,11.42
2023-05-06T05:44:54.429Z,11.37
2023-05-06T05:47:21.757Z,11.43
2023-05-06T05:49:48.404Z,11.43
2023-05-06T05:52:16.134Z,11.51
2023-05-06T05:54:42.994Z,11.47
2023-05-06T05:57:09.675Z,11.36
2023-05-06T05:59:37.130Z,11.58
2023-05-06T06:02:05.271Z,11.63
2023-05-06T06:04:32.414Z,11.66
2023-05-06T06:06:59.141Z,11.79
2023-05-06T06:09:25.800Z,11.86
2023-05-06T06:11:52.785Z,11.79
2023-05-06T06:14:20.224Z,11.91
2023-05-06T06:16:48.542Z,11.96
2023-05-06T06:19:15.802Z,11.91
2023-05-06T06:21:42.951Z,12.08
2023-05-06T06:24:09.594Z,12.06
2023-05-06T06:26:36.246Z,11.75
2023-05-06T06:29:27.564Z,11.77
2023-05-06T06:31:56.091Z,11.74
2023-05-06T06:34:23.155Z,11.96
2023-05-06T06:36:50.123Z,11.91
2023-05-06T06:39:16.807Z,11.84
2023-05-06T06:41:43.622Z,11.98
2023-05-06T06:44:10.183Z,12.07
2023-05-06T06:46:36.873Z,12.09
2023-05-06T06:49:03.439Z,12.08
2023-05-06T06:51:29.923Z,12.01
2023-05-06T06:53:56.852Z,12.04
2023-05-06T06:56:23.533Z,11.67
2023-05-06T06:58:52.429Z,11.87
2023-05-06T07:01:19.857Z,11.98
2023-05-06T07:03:46.807Z,12.01
2023-05-06T07:06:13.460Z,12.22
2023-05-06T07:08:40.024Z,12.20
2023-05-06T07:11:06.586Z,12.10
2023-05-06T07:13:33.177Z,12.04
2023-05-06T07:15:59.919Z,12.19
2023-05-06T07:18:26.460Z,12.39
2023-05-06T07:20:53.005Z,12.58
2023-05-06T07:23:19.573Z,12.50
2023-05-06T07:25:46.352Z,12.69
2023-05-06T07:28:12.913Z,12.75
2023-05-06T07:30:39.589Z,12.81
2023-05-06T07:33:06.200Z,12.79
2023-05-06T07:35:32.983Z,12.85
2023-05-06T07:37:59.627Z,12.83
2023-05-06T07:40:26.293Z,12.81
2023-05-06T07:42:52.930Z,12.86
2023-05-06T07:45:23.219Z,12.97
2023-05-06T07:47:49.993Z,12.83
2023-05-06T07:50:20.344Z,13.08
2023-05-06T07:52:46.869Z,12.91
2023-05-06T07:55:13.625Z,13.04
2023-05-06T07:57:40.272Z,13.16
2023-05-06T08:00:07.421Z,13.09
2023-05-06T08:02:44.039Z,13.25
2023-05-06T08:05:11.636Z,13.43
2023-05-06T08:07:42.530Z,13.56
2023-05-06T08:10:10.507Z,13.39
2023-05-06T08:12:38.088Z,13.47
2023-05-06T08:15:05.225Z,13.53
2023-05-06T08:17:31.828Z,13.43
2023-05-06T08:19:58.503Z,13.36
2023-05-06T08:22:25.054Z,13.43
2023-05-06T08:24:51.904Z,13.57
2023-05-06T08:27:18.503Z,13.58
2023-05-06T08:29:45.072Z,13.81
2023-05-06T08:32:11.912Z,13.79
2023-05-06T08:34:38.523Z,14.07
2023-05-06T08:37:05.751Z,14.09
2023-05-06T08:39:32.373Z,14.08
2023-05-06T08:42:01.912Z,14.21
2023-05-06T08:44:28.579Z,14.13
2023-05-06T08:46:55.629Z,14.23
2023-05-06T08:49:22.265Z,14.21
2023-05-06T08:51:51.322Z,14.17
2023-05-06T08:54:18.357Z,13.98
2023-05-06T08:56:54.662Z,13.83
2023-05-06T08:59:24.452Z,14.14
2023-05-06T09:01:52.258Z,14.16
2023-05-06T09:04:19.139Z,14.48
2023-05-06T09:06:46.137Z,14.75
2023-05-06T09:09:14.819Z,14.87
2023-05-06T09:11:41.590Z,14.75
2023-05-06T09:14:16.554Z,14.82
2023-05-06T09:16:45.451Z,14.96
2023-05-06T09:19:16.973Z,14.86
2023-05-06T09:21:46.402Z,14.92
2023-05-06T09:24:15.233Z,14.95
2023-05-06T09:26:43.397Z,14.82
2023-05-06T09:29:10.620Z,14.95
2023-05-06T09:31:41.972Z,15.06
2023-05-06T09:34:08.757Z,15.19
2023-05-06T09:36:35.919Z,15.23
2023-05-06T09:39:03.174Z,15.14
2023-05-06T09:41:30.278Z,15.36
2023-05-06T09:43:57.781Z,15.61
2023-05-06T09:46:25.825Z,15.79
2023-05-06T09:48:54.082Z,15.91
2023-05-06T09:51:20.981Z,16.08
2023-05-06T09:53:47.528Z,16.25
2023-05-06T09:56:15.424Z,16.37
2023-05-06T09:58:42.506Z,16.39
2023-05-06T10:01:09.482Z,16.65
2023-05-06T10:03:36.541Z,16.98
2023-05-06T10:06:05.993Z,16.90
2023-05-06T10:08:36.759Z,17.07
2023-05-06T10:11:05.157Z,17.24
2023-05-06T10:13:32.771Z,17.55
2023-05-06T10:16:01.863Z,17.51
2023-05-06T10:18:30.729Z,17.19
2023-05-06T10:21:00.127Z,17.45
2023-05-06T10:23:40.641Z,17.49
2023-05-06T10:26:10.528Z,17.58
2023-05-06T10:28:40.963Z,17.94
2023-05-06T10:31:16.441Z,18.00
2023-05-06T10:33:47.445Z,17.85
2023-05-06T10:36:20.479Z,18.10
2023-05-06T10:39:04.900Z,17.85
2023-05-06T10:41:33.197Z,18.26
2023-05-06T10:44:00.330Z,18.31
2023-05-06T10:46:30.644Z,18.67
2023-05-06T10:49:06.353Z,19.04
2023-05-06T10:51:42.582Z,19.27
2023-05-06T10:54:18.350Z,19.20
2023-05-06T10:56:47.917Z,19.13
2023-05-06T10:59:14.869Z,19.07
2023-05-06T11:01:42.876Z,19.26
2023-05-06T11:04:11.882Z,19.55
2023-05-06T11:06:44.650Z,19.33
2023-05-06T11:09:22.294Z,19.57
2023-05-06T11:12:02.593Z,19.55
2023-05-06T11:14:38.433Z,19.84
2023-05-06T11:17:09.866Z,19.91
2023-05-06T11:19:38.936Z,19.84
2023-05-06T11:22:06.986Z,19.41
2023-05-06T11:24:42.062Z,19.61
2023-05-06T11:27:10.417Z,19.62
2023-05-06T11:29:37.500Z,20.46
2023-05-06T11:32:05.676Z,20.41
2023-05-06T11:34:32.976Z,20.51
2023-05-06T11:37:02.743Z,20.86
2023-05-06T11:39:47.488Z,20.80
2023-05-06T11:42:15.652Z,20.73
2023-05-06T11:44:42.172Z,20.57
2023-05-06T11:47:09.370Z,21.05
2023-05-06T11:49:40.137Z,21.52
2023-05-06T11:52:08.769Z,21.28
2023-05-06T11:54:38.584Z,21.18
2023-05-06T11:57:05.245Z,21.67
2023-05-06T11:59:33.783Z,21.26
2023-05-06T12:02:02.833Z,21.02
2023-05-06T12:04:38.675Z,20.73
2023-05-06T12:07:07.454Z,21.35
2023-05-06T12:09:35.944Z,21.14
2023-05-06T12:12:03.829Z,21.33
2023-05-06T12:14:30.850Z,21.79
2023-05-06T12:16:58.155Z,21.72
2023-05-06T12:19:25.127Z,21.83
2023-05-06T12:21:52.286Z,21.42
2023-05-06T12:24:28.933Z,21.26
2023-05-06T12:26:56.074Z,21.06
2023-05-06T12:29:22.719Z,21.08
2023-05-06T12:31:49.601Z,20.95
2023-05-06T12:34:18.177Z,21.10
2023-05-06T12:36:46.857Z,21.14
2023-05-06T12:39:14.207Z,21.32
2023-05-06T12:41:43.405Z,21.45
2023-05-06T12:44:37.256Z,21.20
2023-05-06T12:47:22.936Z,20.70
2023-05-06T12:50:01.012Z,21.08
2023-05-06T12:52:29.756Z,21.21
2023-05-06T12:54:57.126Z,21.71
2023-05-06T12:57:23.790Z,22.35
2023-05-06T12:59:50.587Z,22.87
2023-05-06T13:02:17.572Z,22.95
2023-05-06T13:04:47.321Z,23.03
2023-05-06T13:07:16.004Z,22.75
2023-05-06T13:09:43.359Z,22.17
2023-05-06T13:12:09.877Z,21.94
2023-05-06T13:14:39.247Z,22.00
2023-05-06T13:17:07.192Z,22.18
2023-05-06T13:19:34.222Z,22.39
2023-05-06T13:22:01.824Z,22.57
2023-05-06T13:24:29.365Z,22.52
2023-05-06T13:27:00.848Z,22.55
2023-05-06T13:29:28.144Z,22.61
2023-05-06T13:31:55.334Z,22.17
2023-05-06T13:34:21.912Z,22.39
2023-05-06T13:36:49.578Z,23.14
2023-05-06T13:39:16.527Z,23.35
2023-05-06T13:41:45.860Z,22.95
2023-05-06T13:44:12.445Z,22.87
2023-05-06T13:46:39.176Z,23.38
2023-05-06T13:49:05.720Z,22.85
2023-05-06T13:51:34.460Z,22.94
2023-05-06T13:54:01.862Z,23.16
2023-05-06T13:56:28.514Z,23.08
2023-05-06T13:58:55.539Z,22.55
2023-05-06T14:01:23.373Z,22.68
2023-05-06T14:03:50.359Z,22.79
2023-05-06T14:06:17.132Z,22.63
2023-05-06T14:08:43.834Z,22.74
2023-05-06T14:11:10.451Z,22.91
2023-05-06T14:13:37.295Z,22.94
2023-05-06T14:16:04.083Z,22.90
2023-05-06T14:18:32.472Z,22.39
2023-05-06T14:20:59.184Z,21.67
2023-05-06T14:23:26.075Z,21.72
2023-05-06T14:25:52.784Z,22.06
2023-05-06T14:28:19.337Z,22.68
2023-05-06T14:30:45.873Z,22.88
2023-05-06T14:33:12.752Z,22.77
2023-05-06T14:35:43.328Z,22.44
2023-05-06T14:38:10.734Z,22.44
2023-05-06T14:40:38.799Z,22.22
2023-05-06T14:43:06.964Z,22.19
2023-05-06T14:45:33.575Z,22.85
2023-05-06T14:48:00.388Z,22.82
2023-05-06T14:50:27.189Z,22.48
2023-05-06T14:52:53.787Z,22.72
2023-05-06T14:55:24.116Z,22.60
2023-05-06T14:57:51.006Z,22.80
2023-05-06T15:00:17.871Z,22.50
2023-05-06T15:02:44.551Z,22.12
2023-05-06T15:05:12.366Z,22.20
2023-05-06T15:07:39.144Z,21.81
2023-05-06T15:10:06.005Z,22.02
2023-05-06T15:12:33.492Z,21.75
2023-05-06T15:15:00.068Z,22.22
2023-05-06T15:17:26.849Z,21.87
2023-05-06T15:19:53.836Z,21.77
2023-05-06T15:22:20.570Z,21.80
2023-05-06T15:24:47.128Z,21.90
2023-05-06T15:27:15.158Z,22.31
2023-05-06T15:29:41.732Z,22.50
2023-05-06T15:32:08.414Z,22.13
2023-05-06T15:34:35.164Z,21.91
2023-05-06T15:37:02.135Z,21.86
2023-05-06T15:39:28.854Z,21.95
2023-05-06T15:41:58.272Z,21.65
2023-05-06T15:44:26.896Z,21.95
2023-05-06T15:46:53.699Z,22.01
2023-05-06T15:49:48.760Z,22.15
2023-05-06T15:52:07.089Z,22.10
2023-05-06T15:54:37.507Z,22.07
2023-05-06T15:57:06.522Z,21.89
2023-05-06T15:59:33.485Z,21.79
2023-05-06T16:04:29.975Z,21.41
2023-05-06T16:06:57.589Z,21.33
2023-05-06T16:09:24.553Z,21.03
2023-05-06T16:11:51.117Z,20.83
2023-05-06T16:14:17.662Z,21.22
2023-05-06T16:16:44.247Z,21.32
2023-05-06T16:19:10.820Z,21.33
2023-05-06T16:21:37.481Z,21.48
2023-05-06T16:24:04.321Z,21.59
2023-05-06T16:26:32.173Z,21.61
2023-05-06T16:28:59.495Z,21.56
2023-05-06T16:31:26.569Z,21.64
2023-05-06T16:33:53.632Z,21.10
2023-05-06T16:36:20.347Z,20.97
2023-05-06T16:38:46.894Z,21.20
2023-05-06T16:41:13.726Z,21.21
2023-05-06T16:43:40.978Z,21.26
2023-05-06T16:46:07.646Z,21.34
2023-05-06T16:48:34.577Z,21.23
2023-05-06T16:51:01.342Z,21.22
2023-05-06T16:53:29.384Z,21.28
2023-05-06T16:55:56.236Z,20.95
2023-05-06T16:58:26.310Z,21.02
2023-05-06T17:00:54.351Z,21.10
2023-05-06T17:03:21.385Z,21.05
2023-05-06T17:05:48.011Z,20.85
2023-05-06T17:08:16.137Z,20.76
2023-05-06T17:10:43.427Z,20.58
2023-05-06T17:13:10.181Z,20.76
2023-05-06T17:15:36.835Z,20.55
2023-05-06T17:18:03.791Z,20.63
2023-05-06T17:20:31.248Z,20.63
2023-05-06T17:22:57.849Z,20.39
2023-05-06T17:25:24.396Z,20.57
2023-05-06T17:27:51.228Z,20.49
2023-05-06T17:30:17.853Z,20.42
2023-05-06T17:32:44.701Z,20.45
2023-05-06T17:35:12.054Z,20.42
2023-05-06T17:37:39.535Z,20.36
2023-05-06T17:40:07.606Z,20.36
2023-05-06T17:42:34.512Z,20.33
2023-05-06T17:45:01.498Z,20.17
2023-05-06T17:47:30.035Z,20.26
2023-05-06T17:49:56.934Z,20.17
2023-05-06T17:52:26.747Z,20.03
2023-05-06T17:55:10.665Z,20.15
2023-05-06T17:57:38.225Z,20.14
2023-05-06T18:00:07.251Z,19.68
2023-05-06T18:02:38.854Z,20.00
2023-05-06T18:05:06.680Z,19.90
2023-05-06T18:07:35.888Z,19.82
2023-05-06T18:10:02.471Z,19.75
2023-05-06T18:12:29.176Z,19.77
2023-05-06T18:14:56.794Z,19.66
2023-05-06T18:17:23.787Z,19.54
2023-05-06T18:19:50.589Z,19.49
2023-05-06T18:22:17.326Z,19.52
2023-05-06T18:24:44.132Z,19.49
2023-05-06T18:27:12.693Z,19.45
2023-05-06T18:29:39.837Z,19.53
2023-05-06T18:32:06.735Z,19.41
2023-05-06T18:34:34.068Z,19.46
2023-05-06T18:37:00.651Z,19.23
2023-05-06T18:39:27.212Z,19.31
2023-05-06T18:41:53.796Z,19.34
2023-05-06T18:44:20.597Z,19.26
2023-05-06T18:46:47.261Z,19.17
2023-05-06T18:49:14.227Z,19.12
2023-05-06T18:51:40.985Z,19.07
2023-05-06T18:54:07.611Z,19.02
2023-05-06T18:56:34.562Z,19.05
2023-05-06T18:59:01.312Z,18.75
2023-05-06T19:01:28.003Z,18.76
2023-05-06T19:03:54.956Z,18.85
2023-05-06T19:06:21.537Z,18.74
2023-05-06T19:08:48.194Z,18.78
2023-05-06T19:11:15.934Z,18.79
2023-05-06T19:13:43.753Z,18.72
2023-05-06T19:16:11.251Z,18.81
2023-05-06T19:18:37.924Z,18.58
2023-05-06T19:21:04.767Z,18.61
2023-05-06T19:23:32.768Z,18.49
2023-05-06T19:25:59.363Z,18.58
2023-05-06T19:28:26.023Z,18.67
2023-05-06T19:30:53.311Z,18.65
2023-05-06T19:33:19.932Z,18.64
2023-05-06T19:35:46.526Z,18.50
2023-05-06T19:38:13.092Z,18.56
2023-05-06T19:40:39.712Z,18.46
2023-05-06T19:43:06.640Z,18.41
2023-05-06T19:45:34.091Z,18.45
2023-05-06T19:48:01.536Z,18.35
2023-05-06T19:50:28.461Z,18.29
2023-05-06T19:52:55.054Z,17.97
2023-05-06T19:55:22.121Z,17.87
2023-05-06T19:57:49.630Z,17.69
2023-05-06T20:00:18.236Z,17.61
2023-05-06T20:02:45.343Z,17.67
2023-05-06T20:05:12.382Z,17.60
2023-05-06T20:07:39.339Z,17.39
2023-05-06T20:10:06.619Z,17.51
2023-05-06T20:12:33.471Z,17.51
2023-05-06T20:15:00.280Z,17.56
2023-05-06T20:17:26.944Z,17.55
2023-05-06T20:19:57.182Z,17.64
2023-05-06T20:22:24.485Z,17.49
2023-05-06T20:24:51.586Z,17.56
2023-05-06T20:27:18.121Z,17.54
2023-05-06T20:29:44.679Z,17.60
2023-05-06T20:32:11.696Z,17.59
2023-05-06T20:34:38.303Z,17.42
2023-05-06T20:37:04.953Z,17.45
2023-05-06T20:39:31.510Z,17.46
2023-05-06T20:41:58.116Z,17.38
2023-05-06T20:44:25.064Z,17.46
2023-05-06T20:46:51.720Z,17.42
2023-05-06T20:49:18.656Z,17.41
2023-05-06T20:51:45.215Z,17.36
2023-05-06T20:54:11.734Z,17.32
2023-05-06T20:56:38.326Z,17.36
2023-05-06T20:59:05.819Z,17.16
2023-05-06T21:01:32.431Z,17.03
2023-05-06T21:04:01.408Z,16.95
2023-05-06T21:06:28.059Z,16.91
2023-05-06T21:08:54.794Z,16.90
2023-05-06T21:11:21.358Z,16.93
2023-05-06T21:13:49.521Z,16.86
2023-05-06T21:16:16.681Z,16.87
2023-05-06T21:18:43.270Z,16.87
2023-05-06T21:21:09.862Z,16.90
2023-05-06T21:23:36.508Z,16.82
2023-05-06T21:26:03.400Z,16.82
2023-05-06T21:28:29.969Z,16.76
2023-05-06T21:30:56.537Z,16.79
2023-05-06T21:33:23.084Z,16.62
2023-05-06T21:35:49.819Z,16.61
2023-05-06T21:38:16.486Z,16.65
2023-05-06T21:40:43.055Z,16.63
2023-05-06T21:43:09.781Z,16.52
2023-05-06T21:45:36.382Z,16.50
2023-05-06T21:48:03.041Z,16.56
2023-05-06T21:50:29.677Z,16.48
2023-05-06T21:52:56.260Z,16.44
2023-05-06T21:55:23.007Z,16.40
2023-05-06T21:57:49.542Z,16.41
2023-05-06T22:00:17.139Z,16.37
2023-05-06T22:02:44.084Z,16.29
2023-05-06T22:05:11.432Z,16.29
2023-05-06T22:07:38.136Z,16.33
2023-05-06T22:10:05.165Z,16.27
2023-05-06T22:12:32.266Z,16.37
2023-05-06T22:14:58.815Z,16.30
2023-05-06T22:17:25.555Z,16.27
2023-05-06T22:19:52.200Z,16.28
2023-05-06T22:22:19.233Z,16.18
2023-05-06T22:24:48.248Z,16.07
2023-05-06T22:27:14.940Z,16.11
2023-05-06T22:29:41.490Z,16.18
2023-05-06T22:32:08.173Z,16.22
2023-05-06T22:34:34.738Z,16.11
2023-05-06T22:37:03.176Z,16.21
2023-05-06T22:39:29.822Z,16.20
2023-05-06T22:41:57.135Z,16.17
2023-05-06T22:44:23.718Z,16.16
2023-05-06T22:46:50.339Z,16.13
2023-05-06T22:49:19.383Z,16.02
2023-05-06T22:51:46.004Z,15.86
2023-05-06T22:54:12.591Z,15.89
2023-05-06T22:56:39.194Z,15.92
2023-05-06T22:59:05.951Z,16.02
2023-05-06T23:01:32.757Z,16.03
2023-05-06T23:03:59.536Z,16.04
2023-05-06T23:06:27.985Z,16.02
2023-05-06T23:08:54.514Z,15.94
2023-05-06T23:11:21.223Z,16.00
2023-05-06T23:13:47.775Z,16.00
2023-05-06T23:16:14.799Z,16.02
2023-05-06T23:18:41.680Z,16.02
2023-05-06T23:21:09.156Z,16.03
2023-05-06T23:23:35.765Z,15.95
2023-05-06T23:26:02.395Z,15.86
2023-05-06T23:28:29.244Z,15.79
2023-05-06T23:30:55.884Z,15.74
2023-05-06T23:33:22.724Z,15.68
2023-05-06T23:35:49.330Z,15.72
2023-05-06T23:38:15.912Z,15.64
2023-05-06T23:40:42.549Z,15.55
2023-05-06T23:43:11.205Z,15.57
2023-05-06T23:45:38.172Z,15.49
2023-05-06T23:48:05.280Z,15.51
2023-05-06T23:50:31.900Z,15.51
2023-05-06T23:52:58.420Z,15.52
2023-05-06T23:55:26.321Z,15.51
2023-05-06T23:57:53.172Z,15.55
